Time;durP1;ratioP1;P1;durP2;ratioP2;P2;SDS_P1;SDS_P2;PMS_P1;PMS_P2;Temp;Humidity;BMP_temperature;BMP_pressure;BME280_temperature;BME280_humidity;BME280_pressure;Samples;Min_cycle;Max_cycle;Signal;HPM_P1;HPM_P2
2023/10/02 00:05:06;;;;;;;;;2.00;2.00;;;;;-143.90;100.00;75720.13;4975018;28;101852;-75
2023/10/02 00:07:34;;;;;;;;;2.00;2.00;;;;;-143.90;100.00;75711.84;4982692;28;103105;-75
2023/10/02 00:10:02;;;;;;;;;3.75;3.75;;;;;-143.90;100.00;75707.72;4983127;28;102023;-75
2023/10/02 00:12:31;;;;;;;;;2.50;2.50;;;;;-143.90;100.00;75703.56;4980129;28;103378;-75
2023/10/02 00:14:58;;;;;;;;;2.00;1.75;;;;;-143.90;100.00;75697.38;4980101;28;101854;-75
2023/10/02 00:17:25;;;;;;;;;2.75;2.50;;;;;-143.90;100.00;75705.66;4984393;28;102930;-75
2023/10/02 00:20:12;;;;;;;;;3.75;2.50;;;;;-143.90;100.00;75695.31;4984313;28;101845;-75
2023/10/02 00:22:41;;;;;;;;;3.50;2.75;;;;;-143.90;100.00;75687.03;4994360;28;108242;-75
2023/10/02 00:25:16;;;;;;;;;2.00;2.00;;;;;-143.90;100.00;75689.09;4982277;28;101804;-76
2023/10/02 00:27:51;;;;;;;;;2.00;2.00;;;;;-143.90;100.00;75682.91;4980412;28;102818;-75
2023/10/02 00:30:30;;;;;;;;;1.50;1.50;;;;;-143.90;100.00;75684.97;4976785;28;101899;-76
2023/10/02 00:32:58;;;;;;;;;3.25;3.25;;;;;-143.90;100.00;75676.69;4978983;28;107969;-75
2023/10/02 00:35:27;;;;;;;;;4.25;3.75;;;;;-143.90;100.00;75680.84;4981791;28;101871;-74
2023/10/02 00:37:54;;;;;;;;;4.00;3.50;;;;;-143.90;100.00;75680.84;4997053;28;107367;-75
2023/10/02 00:40:23;;;;;;;;;2.50;2.50;;;;;-143.90;100.00;75674.63;4979559;28;101892;-74
2023/10/02 00:42:55;;;;;;;;;2.75;2.50;;;;;-143.90;100.00;75672.56;4975964;28;103560;-74
2023/10/02 00:45:24;;;;;;;;;2.50;2.50;;;;;-143.90;100.00;75682.91;4981974;28;101948;-76
2023/10/02 00:47:53;;;;;;;;;2.00;2.00;;;;;-143.90;100.00;75680.84;4979943;28;101624;-76
2023/10/02 00:50:22;;;;;;;;;3.50;3.50;;;;;-143.90;100.00;75678.75;4981050;28;103128;-76
2023/10/02 00:53:02;;;;;;;;;3.50;2.75;;;;;-143.90;100.00;75672.56;4978003;28;103871;-75
2023/10/02 00:55:33;;;;;;;;;4.00;4.00;;;;;-143.90;100.00;75668.44;4983321;28;101914;-75
2023/10/02 00:58:05;;;;;;;;;4.00;3.75;;;;;-143.90;100.00;75668.44;4979266;28;101578;-75
2023/10/02 01:00:36;;;;;;;;;3.50;3.00;;;;;-143.90;100.00;75668.44;4983308;28;101870;-75
2023/10/02 01:03:14;;;;;;;;;4.00;4.00;;;;;-143.90;100.00;75670.50;4975236;28;108144;-76
2023/10/02 01:05:42;;;;;;;;;2.00;2.00;;;;;-143.90;100.00;75670.50;4980674;28;102125;-75
2023/10/02 01:11:05;;;;;;;;;4.00;4.00;;;;;-143.90;100.00;75666.34;4983381;28;103142;-76
2023/10/02 01:13:38;;;;;;;;;4.00;4.00;;;;;-143.90;100.00;75672.56;4980717;28;103414;-74
2023/10/02 01:16:08;;;;;;;;;4.00;3.00;;;;;-143.90;100.00;75672.56;4981426;28;101828;-75
2023/10/02 01:18:37;;;;;;;;;2.00;2.00;;;;;-143.90;100.00;75676.69;4982131;28;101883;-74
2023/10/02 01:21:14;;;;;;;;;4.00;3.00;;;;;-143.90;100.00;75676.69;4979884;28;101660;-76
2023/10/02 01:24:08;;;;;;;;;2.25;1.00;;;;;-143.90;100.00;75674.63;4979920;28;103627;-75
2023/10/02 01:26:41;;;;;;;;;2.00;2.00;;;;;-143.90;100.00;75678.75;4979898;28;101835;-75
2023/10/02 01:29:11;;;;;;;;;1.75;1.00;;;;;-143.90;100.00;75678.75;4963342;28;101764;-75
2023/10/02 01:31:42;;;;;;;;;3.75;3.00;;;;;-143.90;100.00;75682.91;4978632;28;101926;-75
2023/10/02 01:34:10;;;;;;;;;3.00;2.50;;;;;-143.90;100.00;75680.84;4981402;28;102821;-75
2023/10/02 01:36:41;;;;;;;;;5.00;4.75;;;;;-143.90;100.00;75680.84;4974805;28;101811;-75
2023/10/02 01:39:13;;;;;;;;;2.00;2.00;;;;;-143.90;100.00;75684.97;4982274;28;102857;-75
2023/10/02 01:41:41;;;;;;;;;4.75;3.75;;;;;-143.90;100.00;75678.75;4982751;28;101617;-75
2023/10/02 01:44:11;;;;;;;;;3.50;2.75;;;;;-143.90;100.00;75687.03;4989436;28;103387;-75
2023/10/02 01:46:49;;;;;;;;;2.75;2.75;;;;;-143.90;100.00;75680.84;4982367;28;101617;-75
2023/10/02 01:49:24;;;;;;;;;3.00;2.50;;;;;-143.90;100.00;75680.84;4979563;28;102533;-75
2023/10/02 01:51:57;;;;;;;;;3.00;3.00;;;;;-143.90;100.00;75680.84;4985270;28;101812;-75
2023/10/02 01:54:31;;;;;;;;;2.00;2.00;;;;;-143.90;100.00;75670.50;4982899;28;104149;-75
2023/10/02 01:57:04;;;;;;;;;3.00;2.00;;;;;-143.90;100.00;75674.63;4982446;28;101857;-75
2023/10/02 01:59:31;;;;;;;;;3.50;3.50;;;;;-143.90;100.00;75674.63;4983106;28;101727;-75
2023/10/02 02:01:58;;;;;;;;;1.75;1.00;;;;;-143.90;100.00;75674.63;4998919;28;102673;-75
2023/10/02 02:04:28;;;;;;;;;1.25;1.25;;;;;-143.90;100.00;75672.56;4979244;28;103353;-75
2023/10/02 02:06:57;;;;;;;;;2.75;2.25;;;;;-143.90;100.00;75662.22;4979738;28;101925;-75
2023/10/02 02:09:32;;;;;;;;;2.00;2.00;;;;;-143.90;100.00;75672.56;4980325;28;101801;-75
2023/10/02 02:12:11;;;;;;;;;2.00;2.00;;;;;-143.90;100.00;75660.16;4984637;28;102086;-75
2023/10/02 02:14:51;;;;;;;;;3.00;1.25;;;;;-143.90;100.00;75658.09;4976876;28;108184;-75
2023/10/02 02:17:24;;;;;;;;;1.25;1.25;;;;;-143.90;100.00;75658.09;4981488;28;101899;-75
2023/10/02 02:19:55;;;;;;;;;5.00;3.75;;;;;-143.90;100.00;75656.03;4996846;28;102075;-75
2023/10/02 02:22:25;;;;;;;;;3.00;3.00;;;;;-143.90;100.00;75647.75;4978128;28;101922;-75
2023/10/02 02:24:53;;;;;;;;;2.00;2.00;;;;;-143.90;100.00;75647.75;4971804;28;104666;-75
2023/10/02 02:27:20;;;;;;;;;1.25;1.25;;;;;-143.90;100.00;75656.03;4979798;28;101976;-75
2023/10/02 02:29:47;;;;;;;;;3.50;3.00;;;;;-143.90;100.00;75645.69;4994839;28;101872;-75
2023/10/02 02:32:19;;;;;;;;;2.00;2.00;;;;;-143.90;100.00;75647.75;4981444;28;101976;-75
2023/10/02 02:34:47;;;;;;;;;1.75;1.75;;;;;-143.90;100.00;75647.75;4983559;28;103372;-75
2023/10/02 02:37:16;;;;;;;;;1.00;1.00;;;;;-143.90;100.00;75651.88;4982573;28;101956;-75
2023/10/02 02:39:43;;;;;;;;;1.00;1.00;;;;;-143.90;100.00;75647.75;4982832;28;102082;-75
2023/10/02 02:42:18;;;;;;;;;1.75;1.75;;;;;-143.90;100.00;75651.88;4986015;28;101718;-75
2023/10/02 02:44:47;;;;;;;;;1.00;1.00;;;;;-143.90;100.00;75651.88;4982169;28;103452;-75
2023/10/02 02:47:19;;;;;;;;;3.00;2.75;;;;;-143.90;100.00;75647.75;4978826;28;101899;-75
2023/10/02 02:49:48;;;;;;;;;2.00;2.00;;;;;-143.90;100.00;75643.63;4978092;28;101788;-75
2023/10/02 02:52:17;;;;;;;;;2.25;1.50;;;;;-143.90;100.00;75645.69;4987020;28;101812;-75
2023/10/02 02:54:58;;;;;;;;;4.00;3.00;;;;;-143.90;100.00;75651.88;4978816;28;103197;-75
2023/10/02 02:57:27;;;;;;;;;1.00;1.00;;;;;-143.90;100.00;75645.69;4974209;28;101745;-75
2023/10/02 03:02:52;;;;;;;;;1.00;0.75;;;;;-143.90;100.00;75631.22;4973353;28;101876;-75
2023/10/02 03:05:25;;;;;;;;;2.00;2.00;;;;;-143.90;100.00;75631.22;4957566;27;103835;-75
2023/10/02 03:07:56;;;;;;;;;1.25;1.25;;;;;-143.90;100.00;75633.28;4983326;28;101855;-75
2023/10/02 03:10:24;;;;;;;;;3.00;2.00;;;;;-143.90;100.00;75635.34;4981291;28;102030;-76
2023/10/02 03:12:51;;;;;;;;;1.00;1.00;;;;;-143.90;100.00;75631.22;4985025;28;102631;-75
2023/10/02 03:15:20;;;;;;;;;0.00;0.00;;;;;-143.90;100.00;75631.22;4983743;28;104812;-75
2023/10/02 03:17:49;;;;;;;;;1.50;1.25;;;;;-143.90;100.00;75629.13;4984596;28;101809;-75
2023/10/02 03:20:22;;;;;;;;;2.00;2.00;;;;;-143.90;100.00;75631.22;4980407;27;101838;-75
2023/10/02 03:22:55;;;;;;;;;4.75;4.75;;;;;-143.90;100.00;75629.13;4984424;28;101570;-75
2023/10/02 03:25:40;;;;;;;;;2.75;2.75;;;;;-143.90;100.00;75631.22;4980170;28;103583;-75
2023/10/02 03:30:55;;;;;;;;;1.50;1.50;;;;;-143.90;100.00;75618.81;4985325;28;101861;-75
2023/10/02 03:33:22;;;;;;;;;2.00;2.00;;;;;-143.90;100.00;75614.66;4976730;28;102126;-74
2023/10/02 03:36:09;;;;;;;;;1.75;1.75;;;;;-143.90;100.00;75616.72;4961841;28;102860;-75
2023/10/02 03:38:43;;;;;;;;;3.00;3.00;;;;;-143.90;100.00;75614.66;4985523;28;101681;-74
2023/10/02 03:41:11;;;;;;;;;2.50;1.50;;;;;-143.90;100.00;75618.81;4983432;28;102031;-75
2023/10/02 03:43:43;;;;;;;;;4.00;4.00;;;;;-143.90;100.00;75610.53;4986953;28;101717;-75
2023/10/02 03:46:35;;;;;;;;;3.00;3.00;;;;;-143.90;100.00;75614.66;4980698;27;105116;-75
2023/10/02 03:49:04;;;;;;;;;4.00;3.00;;;;;-143.90;100.00;75614.66;4985684;28;105069;-74
2023/10/02 03:51:40;;;;;;;;;2.00;2.00;;;;;-143.90;100.00;75616.72;4979610;28;101805;-75
2023/10/02 03:54:20;;;;;;;;;1.00;1.00;;;;;-143.90;100.00;75610.53;4977460;28;102999;-75
2023/10/02 03:56:48;;;;;;;;;3.00;1.00;;;;;-143.90;100.00;75616.72;4995648;28;107219;-74
2023/10/02 03:59:31;;;;;;;;;2.00;2.00;;;;;-143.90;100.00;75620.88;4979004;28;101788;-74
2023/10/02 04:02:24;;;;;;;;;3.25;3.25;;;;;-143.90;100.00;75622.94;4983010;28;101596;-74
2023/10/02 04:04:46;;;;;;;;;3.50;3.50;;;;;-143.90;100.00;75618.81;4983469;28;101918;-75
2023/10/02 04:07:13;;;;;;;;;3.00;1.50;;;;;-143.90;100.00;75616.72;4978481;28;103365;-75
2023/10/02 04:09:40;;;;;;;;;3.25;3.00;;;;;-143.90;100.00;75622.94;4985255;28;101862;-75
2023/10/02 04:12:07;;;;;;;;;2.50;2.50;;;;;-143.90;100.00;75616.72;4971776;28;102304;-75
2023/10/02 04:14:38;;;;;;;;;5.00;5.00;;;;;-143.90;100.00;75633.28;4987990;28;102335;-75
2023/10/02 04:19:49;;;;;;;;;3.00;2.00;;;;;-143.90;100.00;75625.00;4965019;28;102195;-75
2023/10/02 04:22:22;;;;;;;;;3.00;3.00;;;;;-143.90;100.00;75618.81;4964467;28;102388;-75
2023/10/02 04:24:59;;;;;;;;;2.00;2.00;;;;;-143.90;100.00;75622.94;4968632;28;101999;-75
2023/10/02 04:33:07;;;;;;;;;2.00;1.25;;;;;-143.90;100.00;75610.53;4967706;28;102290;-75
2023/10/02 04:35:52;;;;;;;;;1.25;1.00;;;;;-143.90;100.00;75610.53;4971267;28;102159;-75
2023/10/02 04:38:48;;;;;;;;;3.25;3.25;;;;;-143.90;100.00;75610.53;4972649;28;107984;-76
2023/10/02 04:41:20;;;;;;;;;3.50;2.75;;;;;-143.90;100.00;75612.59;4962385;28;102121;-75
2023/10/02 04:43:48;;;;;;;;;3.25;3.00;;;;;-143.90;100.00;75614.66;4969749;28;102048;-75
2023/10/02 04:46:15;;;;;;;;;2.00;2.00;;;;;-143.90;100.00;75614.66;4967648;28;102083;-75
2023/10/02 04:48:47;;;;;;;;;1.50;1.50;;;;;-143.90;100.00;75618.81;4970869;28;104104;-75
2023/10/02 04:51:16;;;;;;;;;2.50;1.50;;;;;-143.90;100.00;75612.59;4971705;27;102126;-74
2023/10/02 04:53:45;;;;;;;;;3.00;2.00;;;;;-143.90;100.00;75608.47;4973155;28;102231;-74
2023/10/02 04:58:52;;;;;;;;;1.50;1.00;;;;;-143.90;100.00;75614.66;4965767;28;104081;-75
2023/10/02 05:04:01;;;;;;;;;3.00;3.00;;;;;-143.90;100.00;75622.94;4969100;28;102516;-75
2023/10/02 05:06:52;;;;;;;;;2.00;2.00;;;;;-143.90;100.00;75618.81;4971006;28;102045;-75
2023/10/02 05:09:26;;;;;;;;;2.00;2.00;;;;;-143.90;100.00;75616.72;4965878;28;108892;-76
2023/10/02 05:11:56;;;;;;;;;1.00;1.00;;;;;-143.90;100.00;75616.72;4942700;28;103493;-77
2023/10/02 05:14:29;;;;;;;;;3.00;3.00;;;;;-143.90;100.00;75612.59;4960120;28;102250;-76
2023/10/02 05:17:16;;;;;;;;;3.00;2.00;;;;;-143.90;100.00;75612.59;4969049;28;103472;-76
2023/10/02 05:20:03;;;;;;;;;2.00;2.00;;;;;-143.90;100.00;75614.66;4962491;28;111367;-75
2023/10/02 05:22:32;;;;;;;;;1.75;1.75;;;;;-143.90;100.00;75616.72;4963094;28;102896;-76
2023/10/02 05:25:00;;;;;;;;;1.75;1.00;;;;;-143.90;100.00;75608.47;4962027;28;102115;-76
2023/10/02 05:27:31;;;;;;;;;1.00;1.00;;;;;-143.90;100.00;75606.41;4968116;28;101948;-76
2023/10/02 05:29:58;;;;;;;;;1.00;1.00;;;;;-143.90;100.00;75606.41;4932897;28;104000;-75
2023/10/02 05:32:30;;;;;;;;;1.25;1.25;;;;;-143.90;100.00;75600.19;4965887;27;102626;-76
2023/10/02 05:35:04;;;;;;;;;0.25;0.25;;;;;-143.90;100.00;75598.13;4964297;28;102046;-76
2023/10/02 05:37:34;;;;;;;;;2.00;1.25;;;;;-143.90;100.00;75587.78;4971050;28;104687;-76
2023/10/02 05:40:37;;;;;;;;;1.00;1.00;;;;;-143.90;100.00;75585.72;4968761;28;103260;-76
2023/10/02 05:45:40;;;;;;;;;2.25;2.25;;;;;-143.90;100.00;75583.66;4968856;28;102328;-75
2023/10/02 05:50:57;;;;;;;;;2.00;2.00;;;;;-143.90;100.00;75585.72;4964238;28;107616;-76
2023/10/02 05:53:26;;;;;;;;;2.00;2.00;;;;;-143.90;100.00;75585.72;4956609;28;102127;-76
2023/10/02 05:56:05;;;;;;;;;2.00;2.00;;;;;-143.90;100.00;75581.59;4961064;28;102098;-76
2023/10/02 05:58:43;;;;;;;;;2.00;1.00;;;;;-143.90;100.00;75589.84;4965121;28;102239;-76
2023/10/02 06:01:19;;;;;;;;;1.00;1.00;;;;;-143.90;100.00;75577.44;4969091;28;108239;-76
2023/10/02 06:03:56;;;;;;;;;1.50;1.00;;;;;-143.90;100.00;75567.13;4961807;28;102054;-75
2023/10/02 06:06:25;;;;;;;;;1.00;1.00;;;;;-143.90;100.00;75569.19;4967997;28;103432;-76
2023/10/02 06:09:12;;;;;;;;;3.75;3.75;;;;;-143.90;100.00;75565.03;4967696;28;107635;-76
2023/10/02 06:14:26;;;;;;;;;1.00;1.00;;;;;-143.90;100.00;75558.84;4970949;28;101960;-76
2023/10/02 06:16:53;;;;;;;;;4.00;4.00;;;;;-143.90;100.00;75546.44;4975840;28;102192;-76
2023/10/02 06:19:20;;;;;;;;;2.25;2.25;;;;;-143.90;100.00;75542.31;4994748;28;103871;-76
2023/10/02 06:22:12;;;;;;;;;2.25;2.25;;;;;-143.90;100.00;75540.22;4971948;28;103507;-76
2023/10/02 06:24:34;;;;;;;;;3.50;2.50;;;;;-143.90;100.00;75534.03;4973069;28;102685;-76
2023/10/02 06:27:05;;;;;;;;;2.00;1.75;;;;;-143.90;100.00;75540.22;4969263;28;102083;-77
2023/10/02 06:29:35;;;;;;;;;1.25;1.00;;;;;-143.90;100.00;75536.09;4965914;28;102325;-76
2023/10/02 06:32:11;;;;;;;;;2.00;2.00;;;;;-143.90;100.00;75525.75;4948365;28;104032;-76
2023/10/02 06:34:39;;;;;;;;;3.50;3.00;;;;;-143.90;100.00;75519.56;4975162;28;101715;-76
2023/10/02 06:37:07;;;;;;;;;4.00;3.25;;;;;-143.90;100.00;75500.94;4970644;28;101964;-76
2023/10/02 06:39:35;;;;;;;;;5.50;5.00;;;;;-143.90;100.00;75488.53;4974996;28;102232;-75
2023/10/02 06:42:04;;;;;;;;;4.00;4.00;;;;;-143.90;100.00;75478.22;4968211;28;104100;-76
2023/10/02 06:44:41;;;;;;;;;5.50;5.00;;;;;-143.90;100.00;75465.81;4967164;28;102189;-75
2023/10/02 06:47:13;;;;;;;;;3.50;3.25;;;;;-143.90;100.00;75453.41;4974077;28;102159;-76
2023/10/02 06:49:41;;;;;;;;;3.00;3.00;;;;;-143.90;100.00;75445.13;4971938;28;102022;-75
2023/10/02 06:52:15;;;;;;;;;4.00;3.00;;;;;-143.90;100.00;75436.84;4972377;28;107540;-75
2023/10/02 06:54:44;;;;;;;;;4.75;4.00;;;;;-143.90;100.00;75432.72;4979042;28;104091;-76
2023/10/02 06:57:15;;;;;;;;;2.75;2.75;;;;;-143.90;100.00;75432.72;4975164;28;102501;-76
2023/10/02 06:59:53;;;;;;;;;4.00;3.00;;;;;-143.90;100.00;75407.91;4967854;28;102363;-76
2023/10/02 07:02:26;;;;;;;;;3.50;3.00;;;;;-143.90;100.00;75395.50;4973547;28;110125;-75
2023/10/02 07:04:55;;;;;;;;;4.00;4.00;;;;;-143.90;100.00;75381.03;4974626;28;102226;-76
2023/10/02 07:07:26;;;;;;;;;4.75;3.00;;;;;-143.90;100.00;75372.75;4974220;28;102425;-76
2023/10/02 07:09:54;;;;;;;;;2.75;2.75;;;;;-143.90;100.00;75374.84;4968179;28;102808;-77
2023/10/02 07:12:27;;;;;;;;;2.00;2.00;;;;;-143.90;100.00;75354.16;4970358;28;103394;-77
2023/10/02 07:15:10;;;;;;;;;4.00;4.00;;;;;-143.90;100.00;75333.47;4978875;28;102333;-77
2023/10/02 07:18:00;;;;;;;;;7.00;5.50;;;;;-143.90;99.66;75329.34;4966317;28;102200;-76
2023/10/02 07:20:42;;;;;;;;;5.50;5.25;;;;;-143.90;99.15;75319.00;4969172;28;102370;-77
2023/10/02 07:23:19;;;;;;;;;6.00;6.00;;;;;-143.90;99.59;75304.53;4959087;28;108885;-78
2023/10/02 07:25:55;;;;;;;;;6.25;5.00;;;;;-143.90;98.87;75283.84;4960834;28;102318;-75
2023/10/02 07:28:21;;;;;;;;;7.75;5.00;;;;;-143.90;99.79;75263.19;4964009;28;102443;-76
2023/10/02 07:30:52;;;;;;;;;4.67;4.67;;;;;-143.90;97.95;75261.13;4964053;28;102145;-76
2023/10/02 07:33:20;;;;;;;;;6.00;5.00;;;;;-143.90;97.39;75238.38;4963101;28;105677;-76
2023/10/02 07:35:53;;;;;;;;;4.00;4.00;;;;;-143.90;95.87;75223.91;4968077;28;102255;-76
2023/10/02 07:38:30;;;;;;;;;3.00;2.67;;;;;-143.90;94.23;75203.22;4966688;28;102067;-76
2023/10/02 07:41:06;;;;;;;;;5.00;3.67;;;;;-143.90;95.38;75180.50;4969825;28;103241;-76
2023/10/02 07:43:34;;;;;;;;;4.67;4.00;;;;;-143.90;90.96;75172.22;4965368;28;105101;-78
2023/10/02 07:46:14;;;;;;;;;3.33;3.00;;;;;-143.90;89.56;75163.94;4962876;28;102124;-76
2023/10/02 07:48:43;;;;;;;;;5.33;4.33;;;;;-143.90;89.00;75151.53;4964066;28;102587;-76
2023/10/02 07:51:10;;;;;;;;;5.00;4.00;;;;;-143.90;89.22;75132.94;4967400;28;103021;-76
2023/10/02 07:53:39;;;;;;;;;3.00;3.00;;;;;-143.90;86.61;75122.59;4963839;28;104315;-75
2023/10/02 07:56:11;;;;;;;;;4.33;4.00;;;;;-143.90;86.47;75110.19;4978979;28;102457;-75
2023/10/02 07:58:39;;;;;;;;;3.67;3.67;;;;;-143.90;84.84;75101.94;4969027;28;102332;-76
2023/10/02 08:01:12;;;;;;;;;4.00;4.00;;;;;-143.90;86.08;75077.13;4966057;28;102106;-75
2023/10/02 08:03:44;;;;;;;;;5.00;4.33;;;;;-143.90;84.23;75068.84;4968978;28;108689;-76
2023/10/02 08:06:22;;;;;;;;;4.00;4.00;;;;;-143.90;84.92;75044.03;4962351;28;102160;-76
2023/10/02 08:11:41;;;;;;;;;6.00;5.00;;;;;-143.90;81.35;75010.97;4962297;28;102036;-75
2023/10/02 08:14:35;;;;;;;;;5.00;4.00;;;;;-143.90;83.14;74998.56;4962585;28;108300;-75
2023/10/02 08:16:59;;;;;;;;;3.33;3.33;;;;;-143.90;83.18;75000.63;4963217;28;102341;-74
2023/10/02 08:19:26;;;;;;;;;3.00;3.00;;;;;-143.90;83.57;74992.38;4969458;28;102350;-75
2023/10/02 08:21:53;;;;;;;;;5.00;5.00;;;;;-143.90;85.33;74994.44;4965610;28;102435;-75
2023/10/02 08:24:20;;;;;;;;;6.67;5.00;;;;;-143.90;81.96;74990.28;4966639;28;103651;-74
2023/10/02 08:26:47;;;;;;;;;5.00;5.00;;;;;-143.90;82.04;74990.28;4969559;28;102487;-75
2023/10/02 08:29:17;;;;;;;;;3.33;3.33;;;;;-143.90;83.25;74990.28;4962832;28;102118;-76
2023/10/02 08:31:48;;;;;;;;;4.00;3.67;;;;;-143.90;81.85;74986.16;4970196;28;102258;-75
2023/10/02 08:34:20;;;;;;;;;5.00;4.00;;;;;-143.90;82.55;74986.16;4964609;28;104113;-76
2023/10/02 08:36:49;;;;;;;;;4.33;4.00;;;;;-143.90;80.20;74979.97;4966187;28;102467;-76
2023/10/02 08:39:22;;;;;;;;;4.00;4.00;;;;;-143.90;80.46;74996.50;4961495;28;101988;-76
2023/10/02 08:41:51;;;;;;;;;3.67;3.00;;;;;-143.90;80.51;74992.38;4964504;28;103184;-76
2023/10/02 08:44:20;;;;;;;;;3.67;3.00;;;;;-143.90;81.31;74984.09;4962166;28;104374;-76
2023/10/02 08:46:48;;;;;;;;;5.00;4.00;;;;;-143.90;80.81;74982.03;4959414;28;102504;-76
2023/10/02 08:49:18;;;;;;;;;2.33;2.33;;;;;-143.90;80.95;74957.22;4958170;28;101992;-76
2023/10/02 08:51:51;;;;;;;;;3.00;2.00;;;;;-143.90;80.92;74948.94;4958645;28;102416;-76
2023/10/02 08:54:18;;;;;;;;;3.33;3.00;;;;;-143.90;79.42;74932.41;4961617;28;104453;-76
2023/10/02 08:56:48;;;;;;;;;4.00;4.00;;;;;-143.90;80.47;74936.53;4963664;28;104476;-76
2023/10/02 08:59:26;;;;;;;;;2.00;2.00;;;;;-143.90;79.25;74915.88;4965884;28;102177;-75
2023/10/02 09:02:17;;;;;;;;;5.00;3.67;;;;;-143.90;78.75;74917.94;4960546;28;104934;-75
2023/10/02 09:04:53;;;;;;;;;4.33;3.67;;;;;-143.90;78.34;74901.41;4967822;28;108678;-77
2023/10/02 09:07:44;;;;;;;;;3.00;2.33;;;;;-143.90;80.29;74901.41;4971366;28;103174;-75
2023/10/02 09:10:26;;;;;;;;;2.00;2.00;;;;;-143.90;78.36;74891.06;4967071;28;102065;-75
2023/10/02 09:13:13;;;;;;;;;3.00;2.67;;;;;-143.90;77.51;74882.78;4959986;28;102009;-76
2023/10/02 09:15:48;;;;;;;;;4.33;4.00;;;;;-143.90;78.28;74880.72;4968491;28;107804;-76
2023/10/02 09:21:40;;;;;;;;;6.33;5.00;;;;;-143.90;78.29;74872.47;4956626;28;102354;-76
2023/10/02 09:24:18;;;;;;;;;3.33;3.00;;;;;-143.90;79.30;74849.72;4964898;28;102366;-76
2023/10/02 09:26:45;;;;;;;;;5.33;3.00;;;;;-143.90;77.33;74839.38;4963124;28;108671;-77
2023/10/02 09:29:16;;;;;;;;;3.00;3.00;;;;;-143.90;77.88;74839.38;4966154;28;102345;-75
2023/10/02 09:31:46;;;;;;;;;3.00;2.00;;;;;-143.90;78.33;74829.03;4964765;28;102559;-75
2023/10/02 09:34:16;;;;;;;;;5.00;4.00;;;;;-143.90;75.13;74826.97;4964397;28;102236;-76
2023/10/02 09:37:11;;;;;;;;;4.00;3.67;;;;;-143.90;72.60;74826.97;4962171;28;109964;-75
2023/10/02 09:40:00;;;;;;;;;4.00;3.00;;;;;-143.90;74.72;74818.72;4961536;28;102429;-74
2023/10/02 09:42:30;;;;;;;;;4.00;2.67;;;;;-143.90;73.34;74798.03;4964097;28;102295;-76
2023/10/02 09:45:08;;;;;;;;;4.00;3.67;;;;;-143.90;74.91;74783.56;4963730;27;102216;-76
2023/10/02 09:47:36;;;;;;;;;3.33;3.00;;;;;-143.90;71.45;74785.63;4962406;28;104234;-75
2023/10/02 09:50:26;;;;;;;;;3.00;2.67;;;;;-143.90;74.27;74777.38;4952962;28;103304;-76
2023/10/02 09:52:58;;;;;;;;;5.00;5.00;;;;;-143.90;71.35;74791.84;4966323;28;102340;-75
2023/10/02 09:55:41;;;;;;;;;4.00;4.00;;;;;-143.90;72.02;74783.56;4958575;28;102599;-76
2023/10/02 09:58:34;;;;;;;;;4.67;3.67;;;;;-143.90;72.98;74777.38;4944709;28;104183;-75
2023/10/02 10:03:55;;;;;;;;;4.00;3.00;;;;;-143.90;71.35;74783.56;4942977;28;102612;-76
2023/10/02 10:06:29;;;;;;;;;5.33;4.00;;;;;-143.90;71.04;74785.63;4948574;28;102029;-76
2023/10/02 10:11:44;;;;;;;;;4.00;3.33;;;;;-143.90;72.69;74756.69;4944581;27;102063;-76
2023/10/02 10:14:45;;;;;;;;;2.00;2.00;;;;;-143.90;72.19;74754.63;4939714;28;102160;-76
2023/10/02 10:17:17;;;;;;;;;3.00;3.00;;;;;-143.90;72.61;74754.63;4945385;28;102332;-75
2023/10/02 10:20:08;;;;;;;;;4.00;3.00;;;;;-143.90;71.92;74746.34;4935981;28;108126;-75
2023/10/02 10:22:38;;;;;;;;;4.00;2.67;;;;;-143.90;73.07;74733.97;4938045;28;102166;-75
2023/10/02 10:25:32;;;;;;;;;3.00;3.00;;;;;-143.90;75.66;74721.56;4941411;28;102118;-75
2023/10/02 10:28:08;;;;;;;;;3.33;3.00;;;;;-143.90;73.84;74723.63;4949003;28;102111;-74
2023/10/02 10:30:39;;;;;;;;;3.00;3.00;;;;;-143.90;75.58;74717.41;4956779;28;103314;-75
2023/10/02 10:35:48;;;;;;;;;5.00;3.00;;;;;-143.90;72.54;74696.75;4950652;28;102330;-75
2023/10/02 10:38:25;;;;;;;;;3.33;3.00;;;;;-143.90;74.78;74692.63;4943122;28;102338;-75
2023/10/02 10:41:15;;;;;;;;;3.00;2.00;;;;;-143.90;73.57;74688.47;4940847;28;110395;-75
2023/10/02 10:46:29;;;;;;;;;3.33;2.67;;;;;-143.90;72.55;74680.22;4941600;28;102360;-70
2023/10/02 10:49:10;;;;;;;;;2.33;2.33;;;;;-143.90;70.81;74661.59;4945203;28;102318;-75
2023/10/02 10:51:38;;;;;;;;;2.00;2.00;;;;;-143.90;71.73;74661.59;4945539;28;105263;-75
2023/10/02 10:54:12;;;;;;;;;2.00;2.00;;;;;-143.90;73.47;74649.19;4945447;28;101992;-75
2023/10/02 10:56:57;;;;;;;;;4.00;3.00;;;;;-143.90;72.83;74640.94;4962414;28;102387;-75
2023/10/02 10:59:34;;;;;;;;;3.00;3.00;;;;;-143.90;70.15;74638.88;4967722;28;102275;-75
2023/10/02 11:02:17;;;;;;;;;3.33;3.33;;;;;-143.90;71.76;74657.47;4970597;28;104149;-76
2023/10/02 11:04:49;;;;;;;;;3.00;3.00;;;;;-143.90;71.09;74651.28;4984658;28;101915;-76
2023/10/02 11:07:22;;;;;;;;;3.00;3.00;;;;;-143.90;72.21;74649.19;4971799;28;102397;-76
2023/10/02 11:10:18;;;;;;;;;3.00;3.00;;;;;-143.90;72.92;74647.13;4966731;28;104061;-75
2023/10/02 11:12:56;;;;;;;;;4.00;4.00;;;;;-143.90;73.43;74678.16;4972434;28;104198;-76
2023/10/02 11:18:20;;;;;;;;;4.00;3.33;;;;;-143.90;73.07;74686.41;4969547;28;102153;-76
2023/10/02 11:20:51;;;;;;;;;2.67;2.67;;;;;-143.90;74.87;74667.81;4971997;28;102474;-76
2023/10/02 11:23:44;;;;;;;;;3.00;3.00;;;;;-143.90;72.69;74651.28;4968999;28;108681;-76
2023/10/02 11:26:12;;;;;;;;;1.33;1.00;;;;;-143.90;73.77;74628.53;4961559;28;102258;-76
2023/10/02 11:28:41;;;;;;;;;3.00;2.67;;;;;-143.90;74.75;74616.13;4970094;28;102248;-75
2023/10/02 11:31:29;;;;;;;;;2.00;2.00;;;;;-143.90;75.27;74609.94;4969150;28;102367;-76
2023/10/02 11:34:03;;;;;;;;;1.00;1.00;;;;;-143.90;74.50;74578.91;4966537;27;108402;-76
2023/10/02 11:36:53;;;;;;;;;3.00;3.00;;;;;-143.90;70.80;74564.44;4966690;28;102257;-76
2023/10/02 11:39:26;;;;;;;;;2.00;2.00;;;;;-143.90;72.43;74562.38;4966417;28;102108;-76
2023/10/02 11:41:53;;;;;;;;;2.33;1.67;;;;;-143.90;71.91;74556.19;4963203;28;102460;-77
2023/10/02 11:44:20;;;;;;;;;2.00;1.33;;;;;-143.90;71.43;74562.38;4963247;27;109222;-76
2023/10/02 11:46:48;;;;;;;;;2.33;1.67;;;;;-143.90;70.87;74556.19;4966190;28;102312;-77
2023/10/02 11:49:15;;;;;;;;;0.67;0.67;;;;;-143.90;70.30;74564.44;4963847;28;102044;-75
2023/10/02 11:51:44;;;;;;;;;1.67;1.67;;;;;-143.90;70.44;74560.31;4965358;28;102243;-75
2023/10/02 11:54:13;;;;;;;;;1.33;1.33;;;;;-143.90;70.72;74547.91;4956748;28;104249;-75
2023/10/02 11:56:42;;;;;;;;;1.00;1.00;;;;;-143.90;73.01;74558.25;4969502;28;102912;-75
2023/10/02 11:59:14;;;;;;;;;1.00;1.00;;;;;-143.90;71.61;74552.03;4966460;28;102134;-75
2023/10/02 12:01:51;;;;;;;;;3.33;3.33;;;;;-143.90;71.76;74581.00;4966719;28;101903;-76
2023/10/02 12:04:18;;;;;;;;;1.67;1.67;;;;;-143.90;71.38;74541.72;4967536;28;109910;-75
2023/10/02 12:06:45;;;;;;;;;1.33;1.33;;;;;-143.90;71.34;74533.44;4970032;28;102440;-75
2023/10/02 12:09:17;;;;;;;;;3.00;3.00;;;;;-143.90;71.71;74514.84;4963854;28;102297;-74
2023/10/02 12:11:45;;;;;;;;;5.00;3.67;;;;;-143.90;68.02;74514.84;4966874;28;102245;-75
2023/10/02 12:14:11;;;;;;;;;2.00;2.00;;;;;-143.90;71.14;74494.16;4965553;28;104156;-75
2023/10/02 12:16:39;;;;;;;;;1.00;1.00;;;;;-143.90;71.28;74477.63;4967827;28;102065;-76
2023/10/02 12:19:08;;;;;;;;;2.00;1.67;;;;;-143.90;68.16;74490.03;4969738;28;102183;-76
2023/10/02 12:21:36;;;;;;;;;2.67;2.00;;;;;-143.90;69.37;74477.63;4971563;28;101957;-75
2023/10/02 12:24:07;;;;;;;;;2.00;1.33;;;;;-143.90;67.66;74485.91;4969673;28;103952;-76
2023/10/02 12:26:34;;;;;;;;;1.33;1.33;;;;;-143.90;68.95;74475.56;4970997;28;104292;-75